M S San Francisco — WZC3886 — position and weather

sailwx.info

Track history (hours):
 
Tides and Currents Weather Stations Pressure Air Temp Water Temp Dewpoint Dewpoint Depression Visibility Wind Speed Wind Dir Waves Ship Positions

M S San Francisco

Owner: GOLDEN GATE BRIDGE HWY & TRANSP DISTRICT, LARKSPUR, CA. More information available from US FCC via Universal Licensing System and Coast Guard Vessel Documentation Center.

Last reported at 2017-Nov-20 00:30 UTC. Time now 2017-Nov-20 21:28 UTC.
Position N 37°56' W 122°30'.

Length 58 m.

Type: Passenger vessel. MMSI: 366963980.

Date/timePositionNaut miles runAvg speedWind from/ knotsBaromVisibWave heightAir tempDewpointWater temp
2017-Nov-20 00:30N 37°56' W 122°30'714.0
2017-Nov-20 00:01N 37°51' W 122°24'3 6.9
2017-Nov-19 23:30N 37°48' W 122°24'0 0.1
2017-Nov-19 23:01N 37°48' W 122°24'0 0.1
2017-Nov-19 22:31N 37°48' W 122°24'917.2
2017-Nov-19 22:01N 37°56' W 122°28'2 4.5
2017-Nov-19 21:30N 37°57' W 122°31'713.5
2017-Nov-19 21:01N 37°52' W 122°25'3 6.7
2017-Nov-19 20:30N 37°49' W 122°23'917.3
2017-Nov-19 20:00N 37°56' W 122°29'1 2.5
2017-Nov-19 19:29N 37°57' W 122°31'0 0.0
2017-Nov-19 03:23N 37°57' W 122°31'2 6.2
2017-Nov-19 03:00N 37°56' W 122°28'917.0
2017-Nov-19 02:30N 37°48' W 122°24'0 0.7
2017-Nov-19 02:01N 37°48' W 122°23'611.1
2017-Nov-19 01:30N 37°51' W 122°29'1 1.1
2017-Nov-19 01:00N 37°51' W 122°28'5 9.8
2017-Nov-19 00:30N 37°48' W 122°24'4 8.3
2017-Nov-19 00:01N 37°51' W 122°27'1 2.7
2017-Nov-18 23:30N 37°51' W 122°29'510.0
2017-Nov-18 23:01N 37°49' W 122°23'1 2.3
2017-Nov-18 22:31N 37°49' W 122°25'4 7.6
2017-Nov-18 22:00N 37°51' W 122°29'510.4
2017-Nov-18 21:31N 37°48' W 122°23'2 3.8
2017-Nov-18 21:00N 37°50' W 122°25'3 6.9
2017-Nov-18 20:30N 37°51' W 122°29'510.9
2017-Nov-18 20:01N 37°48' W 122°24'3 6.9
2017-Nov-18 19:31N 37°50' W 122°26'1 1.7
2017-Nov-18 19:00N 37°51' W 122°27'4 8.6
2017-Nov-18 18:31N 37°48' W 122°24'713.2
2017-Nov-18 18:00N 37°54' W 122°26'4 8.7
2017-Nov-18 17:30N 37°57' W 122°31'0 0.0
2017-Nov-18 05:37N 37°57' W 122°31'0 0.0
2017-Nov-18 05:30N 37°57' W 122°31'3 6.0
2017-Nov-18 05:00N 37°55' W 122°27'3 5.8
2017-Nov-18 04:30N 37°52' W 122°27'510.8
2017-Nov-18 04:00N 37°48' W 122°24'511.0
2017-Nov-18 03:31N 37°52' W 122°27'510.8
2017-Nov-18 03:01N 37°48' W 122°23'4 8.4
2017-Nov-18 02:31N 37°51' W 122°27'2 3.2
2017-Nov-18 02:01N 37°50' W 122°25'2 3.8
2017-Nov-18 01:30N 37°49' W 122°24'5 9.2
2017-Nov-18 01:00N 37°52' W 122°27'510.7
2017-Nov-18 00:30N 37°48' W 122°23'2 3.7
2017-Nov-18 00:00N 37°50' W 122°24'815.6
2017-Nov-17 23:30N 37°56' W 122°30'1 1.7
2017-Nov-17 23:00N 37°57' W 122°31'0 0.0
2017-Nov-17 22:30N 37°57' W 122°31'0 0.0
2017-Nov-17 22:00N 37°57' W 122°31'0 0.0
2017-Nov-17 21:27N 37°57' W 122°31'0 0.0
2017-Nov-17 21:00N 37°57' W 122°31'0 0.0
2017-Nov-17 20:30N 37°57' W 122°31'2 3.2
2017-Nov-17 20:00N 37°56' W 122°29'4 8.5
2017-Nov-17 19:30N 37°52' W 122°27'3 7.0
2017-Nov-17 19:00N 37°49' W 122°29'2 3.5
2017-Nov-17 18:31N 37°50' W 122°27'2 3.8
2017-Nov-17 18:00N 37°50' W 122°24'1 2.7
2017-Nov-17 17:31N 37°49' W 122°24'4 8.9
2017-Nov-17 17:01N 37°52' W 122°27'510.6
2017-Nov-17 16:30N 37°48' W 122°24'510.5
2017-Nov-17 16:01N 37°52' W 122°27'4 7.1
2017-Nov-17 15:31N 37°50' W 122°24'1 1.1
2017-Nov-17 15:01N 37°50' W 122°24'3 6.9
2017-Nov-17 14:30N 37°52' W 122°27'510.8
2017-Nov-17 14:01N 37°48' W 122°24'510.8
2017-Nov-17 13:30N 37°52' W 122°27'4 8.0
2017-Nov-17 13:00N 37°56' W 122°29'1 0.2
2017-Nov-17 05:36N 37°57' W 122°31'0 0.1
2017-Nov-17 05:30N 37°57' W 122°31'4 7.5
2017-Nov-17 05:00N 37°55' W 122°27'2 4.4
2017-Nov-17 04:31N 37°52' W 122°27'510.9
2017-Nov-17 04:01N 37°48' W 122°24'510.9
2017-Nov-17 03:30N 37°52' W 122°27'510.7
2017-Nov-17 03:00N 37°48' W 122°23'3 6.5
2017-Nov-17 02:31N 37°51' W 122°26'0 0.1
2017-Nov-17 02:00N 37°51' W 122°26'3 6.2
2017-Nov-17 01:30N 37°48' W 122°24'510.3
2017-Nov-17 01:00N 37°52' W 122°27'510.8
2017-Nov-17 00:30N 37°48' W 122°24'1 1.1
2017-Nov-17 00:00N 37°48' W 122°24'815.1
2017-Nov-16 23:31N 37°55' W 122°28'3 5.3
2017-Nov-16 23:00N 37°57' W 122°31'0 0.0
2017-Nov-16 22:30N 37°57' W 122°31'0 0.0
2017-Nov-16 22:01N 37°57' W 122°31'0 0.0
2017-Nov-16 21:30N 37°57' W 122°31'0 0.0
2017-Nov-16 21:00N 37°57' W 122°31'0 0.0
2017-Nov-16 20:30N 37°57' W 122°31'0 0.1
2017-Nov-16 20:00N 37°57' W 122°30'0 0.1
2017-Nov-16 19:29N 37°57' W 122°31'0 0.1
2017-Nov-16 19:00N 37°57' W 122°30'1 1.1
2017-Nov-16 18:30N 37°56' W 122°30'612.0
2017-Nov-16 18:00N 37°52' W 122°25'4 7.0
2017-Nov-16 17:31N 37°49' W 122°23'5 9.3
2017-Nov-16 17:00N 37°52' W 122°27'510.8
2017-Nov-16 16:31N 37°48' W 122°24'510.6
2017-Nov-16 16:01N 37°52' W 122°27'4 7.9
2017-Nov-16 15:30N 37°50' W 122°24'1 1.3
2017-Nov-16 15:00N 37°50' W 122°24'4 7.1
2017-Nov-16 14:31N 37°52' W 122°27'510.8
2017-Nov-16 14:00N 37°48' W 122°24'510.9
2017-Nov-16 13:30N 37°52' W 122°27'4 7.1
2017-Nov-16 13:00N 37°56' W 122°28'2 0.3
2017-Nov-16 05:50N 37°57' W 122°31'0 0.6
2017-Nov-16 05:31N 37°57' W 122°30'3 5.4
2017-Nov-16 05:00N 37°55' W 122°27'3 6.1
2017-Nov-16 04:31N 37°52' W 122°27'510.6
2017-Nov-16 04:00N 37°48' W 122°24'511.0
2017-Nov-16 03:30N 37°52' W 122°27'510.7
2017-Nov-16 03:00N 37°48' W 122°23'4 8.4
2017-Nov-16 02:31N 37°51' W 122°27'1 2.9
2017-Nov-16 02:00N 37°50' W 122°25'3 5.1
2017-Nov-16 01:30N 37°48' W 122°24'510.2
2017-Nov-16 01:00N 37°52' W 122°27'510.4
2017-Nov-16 00:31N 37°48' W 122°23'1 1.1
2017-Nov-16 00:00N 37°49' W 122°24'815.8
2017-Nov-15 23:30N 37°56' W 122°28'2 3.6
2017-Nov-15 23:00N 37°57' W 122°30'0 0.1
2017-Nov-15 22:27N 37°57' W 122°31'0 0.1
2017-Nov-15 22:00N 37°57' W 122°30'0 0.1
2017-Nov-15 21:30N 37°57' W 122°31'0 0.0
2017-Nov-15 20:30N 37°57' W 122°31'0 0.0
2017-Nov-15 19:59N 37°57' W 122°31'0 0.0
2017-Nov-15 19:30N 37°57' W 122°31'0 0.0
2017-Nov-15 19:00N 37°57' W 122°31'0 0.8
2017-Nov-15 18:30N 37°56' W 122°30'611.8
2017-Nov-15 18:01N 37°52' W 122°25'4 8.0
2017-Nov-15 17:30N 37°49' W 122°23'5 9.1
2017-Nov-15 17:00N 37°52' W 122°27'510.1
2017-Nov-15 16:30N 37°48' W 122°24'510.8
2017-Nov-15 16:01N 37°52' W 122°27'4 7.7
2017-Nov-15 15:31N 37°50' W 122°24'1 1.1
2017-Nov-15 15:00N 37°49' W 122°24'4 7.4
2017-Nov-15 14:31N 37°52' W 122°27'510.5
2017-Nov-15 14:00N 37°48' W 122°24'510.9
2017-Nov-15 13:30N 37°52' W 122°27'3 6.6
2017-Nov-15 13:00N 37°56' W 122°28'2 0.3
2017-Nov-15 05:52N 37°57' W 122°31'0 0.0
2017-Nov-15 05:30N 37°57' W 122°31'3 5.6
2017-Nov-15 05:00N 37°55' W 122°27'3 6.4
2017-Nov-15 04:31N 37°52' W 122°27'510.6
2017-Nov-15 04:00N 37°48' W 122°24'511.0
2017-Nov-15 03:30N 37°52' W 122°27'510.7
2017-Nov-15 03:00N 37°48' W 122°23'4 8.9
2017-Nov-15 02:30N 37°52' W 122°27'2 4.3
2017-Nov-15 02:00N 37°50' W 122°25'2 4.6
2017-Nov-15 01:30N 37°48' W 122°23'510.4
2017-Nov-15 01:00N 37°52' W 122°27'510.6
2017-Nov-15 00:31N 37°48' W 122°23'0 0.3
2017-Nov-15 00:00N 37°48' W 122°23'917.2
2017-Nov-14 23:30N 37°56' W 122°28'2 3.7
2017-Nov-14 23:00N 37°57' W 122°31'0 0.0
2017-Nov-14 22:30N 37°57' W 122°31'0 0.0
2017-Nov-14 22:00N 37°57' W 122°31'0 0.0
2017-Nov-14 21:30N 37°57' W 122°31'0 0.0
2017-Nov-14 21:00N 37°57' W 122°31'0 0.0
2017-Nov-14 20:30N 37°57' W 122°31'0 0.0
2017-Nov-14 20:00N 37°57' W 122°31'0 0.0
2017-Nov-14 19:30N 37°57' W 122°31'0 0.0
2017-Nov-14 19:00N 37°57' W 122°31'1 1.9
2017-Nov-14 18:30N 37°56' W 122°30'715.0
2017-Nov-14 18:00N 37°50' W 122°24'1 2.2
2017-Nov-14 17:30N 37°50' W 122°25'1 2.4
2017-Nov-14 17:01N 37°51' W 122°26'4 7.3
2017-Nov-14 16:31N 37°48' W 122°23'510.9
2017-Nov-14 16:00N 37°52' W 122°27'5 9.8
2017-Nov-14 15:31N 37°49' W 122°23'2 3.9
2017-Nov-14 15:01N 37°50' W 122°25'3 5.1
2017-Nov-14 14:30N 37°52' W 122°27'510.0
2017-Nov-14 14:01N 37°48' W 122°24'510.9
2017-Nov-14 13:30N 37°52' W 122°27'4 8.1
2017-Nov-14 13:00N 37°56' W 122°29'1 2.4
2017-Nov-14 12:31N 37°57' W 122°31'0 0.0
2017-Nov-14 12:00N 37°57' W 122°31'0 0.0
2017-Nov-14 11:30N 37°57' W 122°31'0 0.0
2017-Nov-14 11:00N 37°57' W 122°31'0 0.0
2017-Nov-14 10:30N 37°57' W 122°31'0 0.0
2017-Nov-14 10:00N 37°57' W 122°31'0 0.0
2017-Nov-14 09:30N 37°57' W 122°31'0 0.0
2017-Nov-14 09:00N 37°57' W 122°31'0 0.0
2017-Nov-14 08:31N 37°57' W 122°31'0 0.0
2017-Nov-14 08:00N 37°57' W 122°31'0 0.0
2017-Nov-14 07:30N 37°57' W 122°31'0 0.0
2017-Nov-14 07:00N 37°57' W 122°31'0 0.0
2017-Nov-14 06:30N 37°57' W 122°31'0 0.0
2017-Nov-14 06:00N 37°57' W 122°31'0 0.1
2017-Nov-14 05:30N 37°57' W 122°30'4 7.4
2017-Nov-14 05:01N 37°54' W 122°27'3 6.2
2017-Nov-14 04:30N 37°51' W 122°29'511.2
2017-Nov-14 04:00N 37°48' W 122°23'4 7.1
2017-Nov-14 03:30N 37°50' W 122°27'1 1.9
2017-Nov-14 03:00N 37°51' W 122°25'3 5.4
2017-Nov-14 02:30N 37°48' W 122°23'510.3
2017-Nov-14 02:01N 37°51' W 122°29'510.6
2017-Nov-14 01:30N 37°48' W 122°24'2 4.7
2017-Nov-14 01:00N 37°50' W 122°25'3 6.6
2017-Nov-14 00:30N 37°51' W 122°29'510.6
2017-Nov-14 00:00N 37°48' W 122°24'4 7.4
2017-Nov-13 23:30N 37°50' W 122°27'2 3.8
2017-Nov-13 23:00N 37°51' W 122°29'510.8
2017-Nov-13 22:30N 37°48' W 122°24'510.6
2017-Nov-13 22:00N 37°51' W 122°29'5 0.3
2017-Nov-13 02:01N 37°48' W 122°23'510.7
2017-Nov-13 01:30N 37°51' W 122°29'1 2.3
2017-Nov-13 01:00N 37°51' W 122°27'4 8.8
2017-Nov-13 00:30N 37°48' W 122°24'4 8.4
2017-Nov-13 00:01N 37°51' W 122°27'1 2.5
2017-Nov-12 23:30N 37°51' W 122°29'5 9.4
2017-Nov-12 23:00N 37°49' W 122°23'1 1.2
2017-Nov-12 22:31N 37°49' W 122°24'4 8.5
2017-Nov-12 22:00N 37°51' W 122°29'510.8
2017-Nov-12 21:31N 37°48' W 122°23'2 4.7
2017-Nov-12 21:01N 37°50' W 122°25'3 6.2
2017-Nov-12 20:30N 37°51' W 122°29'510.8
2017-Nov-12 20:01N 37°48' W 122°24'4 7.7
2017-Nov-12 19:31N 37°51' W 122°27'0 0.8
2017-Nov-12 19:00N 37°51' W 122°27'4 8.0
2017-Nov-12 18:30N 37°48' W 122°24'611.1
2017-Nov-12 18:00N 37°53' W 122°26'510.4
2017-Nov-12 17:30N 37°57' W 122°30'0 0.0
2017-Nov-12 17:00N 37°57' W 122°30'0 0.0
2017-Nov-12 16:30N 37°57' W 122°30'0 0.0
2017-Nov-12 16:00N 37°57' W 122°30'0 0.0
2017-Nov-12 15:30N 37°57' W 122°30'0 0.0
2017-Nov-12 14:11N 37°57' W 122°30'0 0.0
2017-Nov-12 14:00N 37°57' W 122°30'0 0.0
2017-Nov-12 13:30N 37°57' W 122°30'0 0.0
2017-Nov-12 13:00N 37°57' W 122°30'0 0.0
2017-Nov-12 12:30N 37°57' W 122°30'0 0.0
2017-Nov-12 12:00N 37°57' W 122°30'0 0.0
2017-Nov-12 11:30N 37°57' W 122°30'0 0.0
2017-Nov-12 10:59N 37°57' W 122°30'0 0.0
2017-Nov-12 10:30N 37°57' W 122°30'0 0.0
2017-Nov-12 10:00N 37°57' W 122°30'0 0.0
2017-Nov-12 09:30N 37°57' W 122°30'0 0.0
2017-Nov-12 09:00N 37°57' W 122°30'0 0.0
2017-Nov-12 08:30N 37°57' W 122°30'0 0.0
2017-Nov-12 08:00N 37°57' W 122°30'0 0.0
2017-Nov-12 07:30N 37°57' W 122°30'0 0.0
2017-Nov-12 07:00N 37°57' W 122°30'0 0.0
2017-Nov-12 06:30N 37°57' W 122°30'0 0.0
2017-Nov-12 06:00N 37°57' W 122°30'0 0.0
2017-Nov-12 05:30N 37°57' W 122°30'0 0.0
2017-Nov-12 05:00N 37°57' W 122°30'0 0.0
2017-Nov-12 04:30N 37°57' W 122°30'0 0.0
2017-Nov-12 04:00N 37°57' W 122°30'0 0.1
2017-Nov-12 03:15N 37°57' W 122°31'1 4.0
2017-Nov-12 03:00N 37°56' W 122°29'919.0
2017-Nov-12 02:30N 37°48' W 122°23'0 0.2
2017-Nov-12 02:00N 37°48' W 122°23'510.8
2017-Nov-12 01:30N 37°51' W 122°29'1 1.9
2017-Nov-12 01:00N 37°51' W 122°27'5 9.3
2017-Nov-12 00:30N 37°48' W 122°24'510.8
2017-Nov-12 00:00N 37°51' W 122°29'0 0.7
2017-Nov-11 23:31N 37°51' W 122°28'510.3
2017-Nov-11 23:01N 37°48' W 122°23'3 5.2
2017-Nov-11 22:30N 37°50' W 122°25'3 6.2
2017-Nov-11 22:00N 37°51' W 122°29'510.9
2017-Nov-11 21:30N 37°48' W 122°23'4 7.4
2017-Nov-11 21:00N 37°51' W 122°26'2 3.8
2017-Nov-11 20:30N 37°51' W 122°29'510.8
2017-Nov-11 20:00N 37°48' W 122°24'4 8.8
2017-Nov-11 19:31N 37°51' W 122°27'0 0.6
2017-Nov-11 19:01N 37°51' W 122°27'4 8.9
2017-Nov-11 18:30N 37°48' W 122°24'611.4
2017-Nov-11 18:00N 37°53' W 122°26'510.3
2017-Nov-11 17:31N 37°57' W 122°30'0 0.0
2017-Nov-11 05:29N 37°57' W 122°30'3 6.4
2017-Nov-11 05:00N 37°55' W 122°27'3 5.4
2017-Nov-11 04:31N 37°52' W 122°27'510.9
2017-Nov-11 04:00N 37°48' W 122°24'510.9
2017-Nov-11 03:30N 37°52' W 122°27'5 9.7
2017-Nov-11 03:01N 37°49' W 122°23'3 6.0
2017-Nov-11 02:31N 37°51' W 122°26'0 0.2
2017-Nov-11 02:01N 37°51' W 122°26'3 6.5
2017-Nov-11 01:31N 37°48' W 122°24'510.3
2017-Nov-11 01:01N 37°52' W 122°27'510.9
2017-Nov-11 00:31N 37°48' W 122°23'2 3.9
2017-Nov-11 00:00N 37°50' W 122°24'814.7
2017-Nov-10 23:26N 37°57' W 122°30'0 0.0
2017-Nov-10 05:53N 37°57' W 122°31'0 0.0
2017-Nov-10 05:30N 37°57' W 122°31'2 4.6
2017-Nov-10 05:00N 37°56' W 122°28'3 6.7
2017-Nov-10 04:31N 37°52' W 122°27'510.8
2017-Nov-10 04:00N 37°48' W 122°24'511.0
2017-Nov-10 03:30N 37°52' W 122°27'511.0
2017-Nov-10 03:01N 37°48' W 122°23'4 8.0
2017-Nov-10 02:30N 37°51' W 122°26'2 3.4
2017-Nov-10 02:00N 37°50' W 122°25'2 4.6
2017-Nov-10 01:30N 37°48' W 122°24'510.3
2017-Nov-10 01:01N 37°52' W 122°27'510.6
2017-Nov-10 00:31N 37°48' W 122°23'  
Track history (hours):
 
Tides and Currents Weather Stations Pressure Air Temp Water Temp Dewpoint Dewpoint Depression Visibility Wind Speed Wind Dir Waves Ship Positions

M S San Francisco

Owner: GOLDEN GATE BRIDGE HWY & TRANSP DISTRICT, LARKSPUR, CA. More information available from US FCC via Universal Licensing System and Coast Guard Vessel Documentation Center.

Last reported at 2017-Nov-20 00:30 UTC. Time now 2017-Nov-20 21:28 UTC.
Position N 37°56' W 122°30'.

Length 58 m.

Type: Passenger vessel. MMSI: 366963980.

Date/timePositionNaut miles runAvg speedWind from/ knotsBaromVisibWave heightAir tempDewpointWater temp
2017-Nov-20 00:30N 37°56' W 122°30'714.0
2017-Nov-20 00:01N 37°51' W 122°24'3 6.9
2017-Nov-19 23:30N 37°48' W 122°24'0 0.1
2017-Nov-19 23:01N 37°48' W 122°24'0 0.1
2017-Nov-19 22:31N 37°48' W 122°24'917.2
2017-Nov-19 22:01N 37°56' W 122°28'2 4.5
2017-Nov-19 21:30N 37°57' W 122°31'713.5
2017-Nov-19 21:01N 37°52' W 122°25'3 6.7
2017-Nov-19 20:30N 37°49' W 122°23'917.3
2017-Nov-19 20:00N 37°56' W 122°29'1 2.5
2017-Nov-19 19:29N 37°57' W 122°31'0 0.0
2017-Nov-19 03:23N 37°57' W 122°31'2 6.2
2017-Nov-19 03:00N 37°56' W 122°28'917.0
2017-Nov-19 02:30N 37°48' W 122°24'0 0.7
2017-Nov-19 02:01N 37°48' W 122°23'611.1
2017-Nov-19 01:30N 37°51' W 122°29'1 1.1
2017-Nov-19 01:00N 37°51' W 122°28'5 9.8
2017-Nov-19 00:30N 37°48' W 122°24'4 8.3
2017-Nov-19 00:01N 37°51' W 122°27'1 2.7
2017-Nov-18 23:30N 37°51' W 122°29'510.0
2017-Nov-18 23:01N 37°49' W 122°23'1 2.3
2017-Nov-18 22:31N 37°49' W 122°25'4 7.6
2017-Nov-18 22:00N 37°51' W 122°29'510.4
2017-Nov-18 21:31N 37°48' W 122°23'2 3.8
2017-Nov-18 21:00N 37°50' W 122°25'3 6.9
2017-Nov-18 20:30N 37°51' W 122°29'510.9
2017-Nov-18 20:01N 37°48' W 122°24'3 6.9
2017-Nov-18 19:31N 37°50' W 122°26'1 1.7
2017-Nov-18 19:00N 37°51' W 122°27'4 8.6
2017-Nov-18 18:31N 37°48' W 122°24'713.2
2017-Nov-18 18:00N 37°54' W 122°26'4 8.7
2017-Nov-18 17:30N 37°57' W 122°31'0 0.0
2017-Nov-18 05:37N 37°57' W 122°31'0 0.0
2017-Nov-18 05:30N 37°57' W 122°31'3 6.0
2017-Nov-18 05:00N 37°55' W 122°27'3 5.8
2017-Nov-18 04:30N 37°52' W 122°27'510.8
2017-Nov-18 04:00N 37°48' W 122°24'511.0
2017-Nov-18 03:31N 37°52' W 122°27'510.8
2017-Nov-18 03:01N 37°48' W 122°23'4 8.4
2017-Nov-18 02:31N 37°51' W 122°27'2 3.2
2017-Nov-18 02:01N 37°50' W 122°25'2 3.8
2017-Nov-18 01:30N 37°49' W 122°24'5 9.2
2017-Nov-18 01:00N 37°52' W 122°27'510.7
2017-Nov-18 00:30N 37°48' W 122°23'2 3.7
2017-Nov-18 00:00N 37°50' W 122°24'815.6
2017-Nov-17 23:30N 37°56' W 122°30'1 1.7
2017-Nov-17 23:00N 37°57' W 122°31'0 0.0
2017-Nov-17 22:30N 37°57' W 122°31'0 0.0
2017-Nov-17 22:00N 37°57' W 122°31'0 0.0
2017-Nov-17 21:27N 37°57' W 122°31'0 0.0
2017-Nov-17 21:00N 37°57' W 122°31'0 0.0
2017-Nov-17 20:30N 37°57' W 122°31'2 3.2
2017-Nov-17 20:00N 37°56' W 122°29'4 8.5
2017-Nov-17 19:30N 37°52' W 122°27'3 7.0
2017-Nov-17 19:00N 37°49' W 122°29'2 3.5
2017-Nov-17 18:31N 37°50' W 122°27'2 3.8
2017-Nov-17 18:00N 37°50' W 122°24'1 2.7
2017-Nov-17 17:31N 37°49' W 122°24'4 8.9
2017-Nov-17 17:01N 37°52' W 122°27'510.6
2017-Nov-17 16:30N 37°48' W 122°24'510.5
2017-Nov-17 16:01N 37°52' W 122°27'4 7.1
2017-Nov-17 15:31N 37°50' W 122°24'1 1.1
2017-Nov-17 15:01N 37°50' W 122°24'3 6.9
2017-Nov-17 14:30N 37°52' W 122°27'510.8
2017-Nov-17 14:01N 37°48' W 122°24'510.8
2017-Nov-17 13:30N 37°52' W 122°27'4 8.0
2017-Nov-17 13:00N 37°56' W 122°29'1 0.2
2017-Nov-17 05:36N 37°57' W 122°31'0 0.1
2017-Nov-17 05:30N 37°57' W 122°31'4 7.5
2017-Nov-17 05:00N 37°55' W 122°27'2 4.4
2017-Nov-17 04:31N 37°52' W 122°27'510.9
2017-Nov-17 04:01N 37°48' W 122°24'510.9
2017-Nov-17 03:30N 37°52' W 122°27'510.7
2017-Nov-17 03:00N 37°48' W 122°23'3 6.5
2017-Nov-17 02:31N 37°51' W 122°26'0 0.1
2017-Nov-17 02:00N 37°51' W 122°26'3 6.2
2017-Nov-17 01:30N 37°48' W 122°24'510.3
2017-Nov-17 01:00N 37°52' W 122°27'510.8
2017-Nov-17 00:30N 37°48' W 122°24'1 1.1
2017-Nov-17 00:00N 37°48' W 122°24'815.1
2017-Nov-16 23:31N 37°55' W 122°28'3 5.3
2017-Nov-16 23:00N 37°57' W 122°31'0 0.0
2017-Nov-16 22:30N 37°57' W 122°31'0 0.0
2017-Nov-16 22:01N 37°57' W 122°31'0 0.0
2017-Nov-16 21:30N 37°57' W 122°31'0 0.0
2017-Nov-16 21:00N 37°57' W 122°31'0 0.0
2017-Nov-16 20:30N 37°57' W 122°31'0 0.1
2017-Nov-16 20:00N 37°57' W 122°30'0 0.1
2017-Nov-16 19:29N 37°57' W 122°31'0 0.1
2017-Nov-16 19:00N 37°57' W 122°30'1 1.1
2017-Nov-16 18:30N 37°56' W 122°30'612.0
2017-Nov-16 18:00N 37°52' W 122°25'4 7.0
2017-Nov-16 17:31N 37°49' W 122°23'5 9.3
2017-Nov-16 17:00N 37°52' W 122°27'510.8
2017-Nov-16 16:31N 37°48' W 122°24'510.6
2017-Nov-16 16:01N 37°52' W 122°27'4 7.9
2017-Nov-16 15:30N 37°50' W 122°24'1 1.3
2017-Nov-16 15:00N 37°50' W 122°24'4 7.1
2017-Nov-16 14:31N 37°52' W 122°27'510.8
2017-Nov-16 14:00N 37°48' W 122°24'510.9
2017-Nov-16 13:30N 37°52' W 122°27'4 7.1
2017-Nov-16 13:00N 37°56' W 122°28'2 0.3
2017-Nov-16 05:50N 37°57' W 122°31'0 0.6
2017-Nov-16 05:31N 37°57' W 122°30'3 5.4
2017-Nov-16 05:00N 37°55' W 122°27'3 6.1
2017-Nov-16 04:31N 37°52' W 122°27'510.6
2017-Nov-16 04:00N 37°48' W 122°24'511.0
2017-Nov-16 03:30N 37°52' W 122°27'510.7
2017-Nov-16 03:00N 37°48' W 122°23'4 8.4
2017-Nov-16 02:31N 37°51' W 122°27'1 2.9
2017-Nov-16 02:00N 37°50' W 122°25'3 5.1
2017-Nov-16 01:30N 37°48' W 122°24'510.2
2017-Nov-16 01:00N 37°52' W 122°27'510.4
2017-Nov-16 00:31N 37°48' W 122°23'1 1.1
2017-Nov-16 00:00N 37°49' W 122°24'815.8
2017-Nov-15 23:30N 37°56' W 122°28'2 3.6
2017-Nov-15 23:00N 37°57' W 122°30'0 0.1
2017-Nov-15 22:27N 37°57' W 122°31'0 0.1
2017-Nov-15 22:00N 37°57' W 122°30'0 0.1
2017-Nov-15 21:30N 37°57' W 122°31'0 0.0
2017-Nov-15 20:30N 37°57' W 122°31'0 0.0
2017-Nov-15 19:59N 37°57' W 122°31'0 0.0
2017-Nov-15 19:30N 37°57' W 122°31'0 0.0
2017-Nov-15 19:00N 37°57' W 122°31'0 0.8
2017-Nov-15 18:30N 37°56' W 122°30'611.8
2017-Nov-15 18:01N 37°52' W 122°25'4 8.0
2017-Nov-15 17:30N 37°49' W 122°23'5 9.1
2017-Nov-15 17:00N 37°52' W 122°27'510.1
2017-Nov-15 16:30N 37°48' W 122°24'510.8
2017-Nov-15 16:01N 37°52' W 122°27'4 7.7
2017-Nov-15 15:31N 37°50' W 122°24'1 1.1
2017-Nov-15 15:00N 37°49' W 122°24'4 7.4
2017-Nov-15 14:31N 37°52' W 122°27'510.5
2017-Nov-15 14:00N 37°48' W 122°24'510.9
2017-Nov-15 13:30N 37°52' W 122°27'3 6.6
2017-Nov-15 13:00N 37°56' W 122°28'2 0.3
2017-Nov-15 05:52N 37°57' W 122°31'0 0.0
2017-Nov-15 05:30N 37°57' W 122°31'3 5.6
2017-Nov-15 05:00N 37°55' W 122°27'3 6.4
2017-Nov-15 04:31N 37°52' W 122°27'510.6
2017-Nov-15 04:00N 37°48' W 122°24'511.0
2017-Nov-15 03:30N 37°52' W 122°27'510.7
2017-Nov-15 03:00N 37°48' W 122°23'4 8.9
2017-Nov-15 02:30N 37°52' W 122°27'2 4.3
2017-Nov-15 02:00N 37°50' W 122°25'2 4.6
2017-Nov-15 01:30N 37°48' W 122°23'510.4
2017-Nov-15 01:00N 37°52' W 122°27'510.6
2017-Nov-15 00:31N 37°48' W 122°23'0 0.3
2017-Nov-15 00:00N 37°48' W 122°23'917.2
2017-Nov-14 23:30N 37°56' W 122°28'2 3.7
2017-Nov-14 23:00N 37°57' W 122°31'0 0.0
2017-Nov-14 22:30N 37°57' W 122°31'0 0.0
2017-Nov-14 22:00N 37°57' W 122°31'0 0.0
2017-Nov-14 21:30N 37°57' W 122°31'0 0.0
2017-Nov-14 21:00N 37°57' W 122°31'0 0.0
2017-Nov-14 20:30N 37°57' W 122°31'0 0.0
2017-Nov-14 20:00N 37°57' W 122°31'0 0.0
2017-Nov-14 19:30N 37°57' W 122°31'0 0.0
2017-Nov-14 19:00N 37°57' W 122°31'1 1.9
2017-Nov-14 18:30N 37°56' W 122°30'715.0
2017-Nov-14 18:00N 37°50' W 122°24'1 2.2
2017-Nov-14 17:30N 37°50' W 122°25'1 2.4
2017-Nov-14 17:01N 37°51' W 122°26'4 7.3
2017-Nov-14 16:31N 37°48' W 122°23'510.9
2017-Nov-14 16:00N 37°52' W 122°27'5 9.8
2017-Nov-14 15:31N 37°49' W 122°23'2 3.9
2017-Nov-14 15:01N 37°50' W 122°25'3 5.1
2017-Nov-14 14:30N 37°52' W 122°27'510.0
2017-Nov-14 14:01N 37°48' W 122°24'510.9
2017-Nov-14 13:30N 37°52' W 122°27'4 8.1
2017-Nov-14 13:00N 37°56' W 122°29'1 2.4
2017-Nov-14 12:31N 37°57' W 122°31'0 0.0
2017-Nov-14 12:00N 37°57' W 122°31'0 0.0
2017-Nov-14 11:30N 37°57' W 122°31'0 0.0
2017-Nov-14 11:00N 37°57' W 122°31'0 0.0
2017-Nov-14 10:30N 37°57' W 122°31'0 0.0
2017-Nov-14 10:00N 37°57' W 122°31'0 0.0
2017-Nov-14 09:30N 37°57' W 122°31'0 0.0
2017-Nov-14 09:00N 37°57' W 122°31'0 0.0
2017-Nov-14 08:31N 37°57' W 122°31'0 0.0
2017-Nov-14 08:00N 37°57' W 122°31'0 0.0
2017-Nov-14 07:30N 37°57' W 122°31'0 0.0
2017-Nov-14 07:00N 37°57' W 122°31'0 0.0
2017-Nov-14 06:30N 37°57' W 122°31'0 0.0
2017-Nov-14 06:00N 37°57' W 122°31'0 0.1
2017-Nov-14 05:30N 37°57' W 122°30'4 7.4
2017-Nov-14 05:01N 37°54' W 122°27'3 6.2
2017-Nov-14 04:30N 37°51' W 122°29'511.2
2017-Nov-14 04:00N 37°48' W 122°23'4 7.1
2017-Nov-14 03:30N 37°50' W 122°27'1 1.9
2017-Nov-14 03:00N 37°51' W 122°25'3 5.4
2017-Nov-14 02:30N 37°48' W 122°23'510.3
2017-Nov-14 02:01N 37°51' W 122°29'510.6
2017-Nov-14 01:30N 37°48' W 122°24'2 4.7
2017-Nov-14 01:00N 37°50' W 122°25'3 6.6
2017-Nov-14 00:30N 37°51' W 122°29'510.6
2017-Nov-14 00:00N 37°48' W 122°24'4 7.4
2017-Nov-13 23:30N 37°50' W 122°27'2 3.8
2017-Nov-13 23:00N 37°51' W 122°29'510.8
2017-Nov-13 22:30N 37°48' W 122°24'510.6
2017-Nov-13 22:00N 37°51' W 122°29'5 0.3
2017-Nov-13 02:01N 37°48' W 122°23'510.7
2017-Nov-13 01:30N 37°51' W 122°29'1 2.3
2017-Nov-13 01:00N 37°51' W 122°27'4 8.8
2017-Nov-13 00:30N 37°48' W 122°24'4 8.4
2017-Nov-13 00:01N 37°51' W 122°27'1 2.5
2017-Nov-12 23:30N 37°51' W 122°29'5 9.4
2017-Nov-12 23:00N 37°49' W 122°23'1 1.2
2017-Nov-12 22:31N 37°49' W 122°24'4 8.5
2017-Nov-12 22:00N 37°51' W 122°29'510.8
2017-Nov-12 21:31N 37°48' W 122°23'2 4.7
2017-Nov-12 21:01N 37°50' W 122°25'3 6.2
2017-Nov-12 20:30N 37°51' W 122°29'510.8
2017-Nov-12 20:01N 37°48' W 122°24'4 7.7
2017-Nov-12 19:31N 37°51' W 122°27'0 0.8
2017-Nov-12 19:00N 37°51' W 122°27'4 8.0
2017-Nov-12 18:30N 37°48' W 122°24'611.1
2017-Nov-12 18:00N 37°53' W 122°26'510.4
2017-Nov-12 17:30N 37°57' W 122°30'0 0.0
2017-Nov-12 17:00N 37°57' W 122°30'0 0.0
2017-Nov-12 16:30N 37°57' W 122°30'0 0.0
2017-Nov-12 16:00N 37°57' W 122°30'0 0.0
2017-Nov-12 15:30N 37°57' W 122°30'0 0.0
2017-Nov-12 14:11N 37°57' W 122°30'0 0.0
2017-Nov-12 14:00N 37°57' W 122°30'0 0.0
2017-Nov-12 13:30N 37°57' W 122°30'0 0.0
2017-Nov-12 13:00N 37°57' W 122°30'0 0.0
2017-Nov-12 12:30N 37°57' W 122°30'0 0.0
2017-Nov-12 12:00N 37°57' W 122°30'0 0.0
2017-Nov-12 11:30N 37°57' W 122°30'0 0.0
2017-Nov-12 10:59N 37°57' W 122°30'0 0.0
2017-Nov-12 10:30N 37°57' W 122°30'0 0.0
2017-Nov-12 10:00N 37°57' W 122°30'0 0.0
2017-Nov-12 09:30N 37°57' W 122°30'0 0.0
2017-Nov-12 09:00N 37°57' W 122°30'0 0.0
2017-Nov-12 08:30N 37°57' W 122°30'0 0.0
2017-Nov-12 08:00N 37°57' W 122°30'0 0.0
2017-Nov-12 07:30N 37°57' W 122°30'0 0.0
2017-Nov-12 07:00N 37°57' W 122°30'0 0.0
2017-Nov-12 06:30N 37°57' W 122°30'0 0.0
2017-Nov-12 06:00N 37°57' W 122°30'0 0.0
2017-Nov-12 05:30N 37°57' W 122°30'0 0.0
2017-Nov-12 05:00N 37°57' W 122°30'0 0.0
2017-Nov-12 04:30N 37°57' W 122°30'0 0.0
2017-Nov-12 04:00N 37°57' W 122°30'0 0.1
2017-Nov-12 03:15N 37°57' W 122°31'1 4.0
2017-Nov-12 03:00N 37°56' W 122°29'919.0
2017-Nov-12 02:30N 37°48' W 122°23'0 0.2
2017-Nov-12 02:00N 37°48' W 122°23'510.8
2017-Nov-12 01:30N 37°51' W 122°29'1 1.9
2017-Nov-12 01:00N 37°51' W 122°27'5 9.3
2017-Nov-12 00:30N 37°48' W 122°24'510.8
2017-Nov-12 00:00N 37°51' W 122°29'0 0.7
2017-Nov-11 23:31N 37°51' W 122°28'510.3
2017-Nov-11 23:01N 37°48' W 122°23'3 5.2
2017-Nov-11 22:30N 37°50' W 122°25'3 6.2
2017-Nov-11 22:00N 37°51' W 122°29'510.9
2017-Nov-11 21:30N 37°48' W 122°23'4 7.4
2017-Nov-11 21:00N 37°51' W 122°26'2 3.8
2017-Nov-11 20:30N 37°51' W 122°29'510.8
2017-Nov-11 20:00N 37°48' W 122°24'4 8.8
2017-Nov-11 19:31N 37°51' W 122°27'0 0.6
2017-Nov-11 19:01N 37°51' W 122°27'4 8.9
2017-Nov-11 18:30N 37°48' W 122°24'611.4
2017-Nov-11 18:00N 37°53' W 122°26'510.3
2017-Nov-11 17:31N 37°57' W 122°30'0 0.0
2017-Nov-11 05:29N 37°57' W 122°30'3 6.4
2017-Nov-11 05:00N 37°55' W 122°27'3 5.4
2017-Nov-11 04:31N 37°52' W 122°27'510.9
2017-Nov-11 04:00N 37°48' W 122°24'510.9
2017-Nov-11 03:30N 37°52' W 122°27'5 9.7
2017-Nov-11 03:01N 37°49' W 122°23'3 6.0
2017-Nov-11 02:31N 37°51' W 122°26'0 0.2
2017-Nov-11 02:01N 37°51' W 122°26'3 6.5
2017-Nov-11 01:31N 37°48' W 122°24'510.3
2017-Nov-11 01:01N 37°52' W 122°27'510.9
2017-Nov-11 00:31N 37°48' W 122°23'2 3.9
2017-Nov-11 00:00N 37°50' W 122°24'814.7
2017-Nov-10 23:26N 37°57' W 122°30'0 0.0
2017-Nov-10 05:53N 37°57' W 122°31'0 0.0
2017-Nov-10 05:30N 37°57' W 122°31'2 4.6
2017-Nov-10 05:00N 37°56' W 122°28'3 6.7
2017-Nov-10 04:31N 37°52' W 122°27'510.8
2017-Nov-10 04:00N 37°48' W 122°24'511.0
2017-Nov-10 03:30N 37°52' W 122°27'511.0
2017-Nov-10 03:01N 37°48' W 122°23'4 8.0
2017-Nov-10 02:30N 37°51' W 122°26'2 3.4
2017-Nov-10 02:00N 37°50' W 122°25'2 4.6
2017-Nov-10 01:30N 37°48' W 122°24'510.3
2017-Nov-10 01:01N 37°52' W 122°27'510.6
2017-Nov-10 00:31N 37°48' W 122°23'  

Dump ship's entire track history